< < Back
Terminal Aerodrome Forecast


Current Version              Previous Versions:   1  2  3  4  5  6  7  8  9  

Terminal Aerodrome Forecast

096
FTUS42 KMLB 212300
TAFMCO
TAF
KMCO 212330Z 2200/2224 VRB02KT P6SM -RA VCTS SCT030CB BKN040 BKN120
     FM220400 17004KT 6SM -SHRA BR SCT010 BKN020 OVC040
     FM221500 18009KT P6SM VCSH SCT020 BKN050 BKN100=



Latest METAR

148
SAUS70 KWBC 220800 RRE
MTRMCO
METAR KMCO 220753Z 14006KT 6SM -RA BR SCT008 BKN019 OVC041 20/20 A3004
RMK AO2 RAB0659 SLP170 P0007 T02000200 $


USA.gov is the U.S. government's official web portal to all federal, state and local government web resources and services.